Time;durP1;ratioP1;P1;durP2;ratioP2;P2;SDS_P1;SDS_P2;PMS_P1;PMS_P2;Temp;Humidity;BMP_temperature;BMP_pressure;BME280_temperature;BME280_humidity;BME280_pressure;Samples;Min_cycle;Max_cycle;Signal;HPM_P1;HPM_P2
2023/03/22 00:00:12;;;;;;;;;;;;;;;14.38;100.00;98672.00;5037848;28;19923;-54
2023/03/22 00:02:37;;;;;;;;;;;;;;;14.13;100.00;98669.03;5039839;28;19920;-54
2023/03/22 00:05:03;;;;;;;;;;;;;;;14.36;100.00;98681.63;5039633;28;19928;-54
2023/03/22 00:07:28;;;;;;;;;;;;;;;14.35;100.00;98673.94;5039830;28;19917;-54
2023/03/22 00:09:53;;;;;;;;;;;;;;;14.02;100.00;98682.53;5039584;28;19986;-54
2023/03/22 00:12:18;;;;;;;;;;;;;;;14.27;100.00;98669.16;5039781;28;19968;-54
2023/03/22 00:14:44;;;;;;;;;;;;;;;14.03;100.00;98673.88;5039031;28;19967;-54
2023/03/22 00:17:10;;;;;;;;;;;;;;;13.64;100.00;98695.66;5040456;28;19963;-55
2023/03/22 00:19:36;;;;;;;;;;;;;;;13.72;100.00;98703.88;5039301;28;19913;-54
2023/03/22 00:22:04;;;;;;;;;;;;;;;13.90;100.00;98716.81;5038232;28;19935;-54
2023/03/22 00:24:30;;;;;;;;;;;;;;;14.21;100.00;98701.41;5038780;28;19925;-54
2023/03/22 00:26:55;;;;;;;;;;;;;;;13.49;100.00;98686.06;5039870;28;19940;-53
2023/03/22 00:29:22;;;;;;;;;;;;;;;13.79;100.00;98715.59;5039681;28;19932;-52
2023/03/22 00:31:48;;;;;;;;;;;;;;;14.64;100.00;98704.34;5039307;28;19924;-53
2023/03/22 00:34:14;;;;;;;;;;;;;;;14.35;100.00;98663.59;5039176;28;19927;-55
2023/03/22 00:36:39;;;;;;;;;;;;;;;14.67;100.00;98653.28;5039698;28;19924;-54
2023/03/22 00:39:04;;;;;;;;;;;;;;;14.36;100.00;98623.78;5039393;28;20003;-55
2023/03/22 00:41:29;;;;;;;;;;;;;;;13.99;100.00;98643.84;5038089;28;19995;-55
2023/03/22 00:43:55;;;;;;;;;;;;;;;14.53;100.00;98622.88;5038467;28;19992;-55
2023/03/22 00:46:20;;;;;;;;;;;;;;;14.28;100.00;98636.31;5038599;28;19974;-55
2023/03/22 00:48:46;;;;;;;;;;;;;;;14.19;100.00;98656.59;5040005;28;20374;-54
2023/03/22 00:51:11;;;;;;;;;;;;;;;14.28;100.00;98654.44;5039266;28;19928;-55
2023/03/22 00:53:37;;;;;;;;;;;;;;;14.75;100.00;98620.81;5037392;28;19928;-55
2023/03/22 00:56:05;;;;;;;;;;;;;;;14.69;100.00;98592.66;5039184;28;19970;-55
2023/03/22 00:58:30;;;;;;;;;;;;;;;14.56;100.00;98600.25;5038891;28;19936;-55
2023/03/22 01:00:56;;;;;;;;;;;;;;;14.49;100.00;98609.25;5040042;28;19916;-54
2023/03/22 01:03:21;;;;;;;;;;;;;;;14.12;100.00;98608.66;5038156;28;20394;-54
2023/03/22 01:05:48;;;;;;;;;;;;;;;14.59;100.00;98607.03;5038872;28;20070;-54
2023/03/22 01:08:13;;;;;;;;;;;;;;;14.78;100.00;98583.50;5039039;28;19970;-54
2023/03/22 01:10:40;;;;;;;;;;;;;;;13.91;100.00;98610.63;5036026;28;19928;-55
2023/03/22 01:13:05;;;;;;;;;;;;;;;14.04;100.00;98613.38;5038344;28;19920;-54
2023/03/22 01:15:30;;;;;;;;;;;;;;;14.65;100.00;98580.78;5038754;28;19923;-53
2023/03/22 01:17:56;;;;;;;;;;;;;;;14.13;100.00;98573.22;5037742;28;19913;-52
2023/03/22 01:20:21;;;;;;;;;;;;;;;14.40;100.00;98583.84;5038641;28;19928;-53
2023/03/22 01:22:46;;;;;;;;;;;;;;;14.10;100.00;98573.41;5039039;28;19917;-55
2023/03/22 01:25:12;;;;;;;;;;;;;;;14.08;100.00;98578.66;5037665;28;20444;-54
2023/03/22 01:27:37;;;;;;;;;;;;;;;14.17;100.00;98596.28;5039185;28;19916;-53
2023/03/22 01:30:03;;;;;;;;;;;;;;;14.46;100.00;98572.31;5038773;28;19936;-54
2023/03/22 01:32:28;;;;;;;;;;;;;;;14.38;100.00;98557.19;5038621;28;20035;-54
2023/03/22 01:34:54;;;;;;;;;;;;;;;14.00;100.00;98563.53;5037730;28;20050;-53
2023/03/22 01:37:20;;;;;;;;;;;;;;;13.99;100.00;98592.91;5038640;28;19913;-56
2023/03/22 01:39:46;;;;;;;;;;;;;;;13.78;100.00;98583.69;5037773;28;19920;-53
2023/03/22 01:42:14;;;;;;;;;;;;;;;14.12;100.00;98595.69;5038268;28;19920;-54
2023/03/22 01:44:41;;;;;;;;;;;;;;;13.65;100.00;98599.00;5036105;28;19924;-54
2023/03/22 01:47:06;;;;;;;;;;;;;;;13.70;100.00;98627.22;5039226;28;20001;-55
2023/03/22 01:49:32;;;;;;;;;;;;;;;14.10;100.00;98625.19;5036373;28;20012;-56
2023/03/22 01:51:59;;;;;;;;;;;;;;;14.15;100.00;98624.00;5037168;28;20294;-56
2023/03/22 01:54:29;;;;;;;;;;;;;;;14.21;100.00;98608.16;5036355;28;19913;-54
2023/03/22 01:56:54;;;;;;;;;;;;;;;13.83;100.00;98614.50;5036904;28;19924;-51
2023/03/22 01:59:20;;;;;;;;;;;;;;;13.49;100.00;98647.25;5037000;28;19925;-55
2023/03/22 02:01:45;;;;;;;;;;;;;;;14.18;100.00;98648.91;5036771;28;19928;-56
2023/03/22 02:04:11;;;;;;;;;;;;;;;13.72;100.00;98646.94;5036981;28;19927;-56
2023/03/22 02:06:37;;;;;;;;;;;;;;;14.12;100.00;98644.91;5038161;28;19996;-55
2023/03/22 02:09:07;;;;;;;;;;;;;;;14.04;100.00;98654.81;5038152;28;20019;-55
2023/03/22 02:11:38;;;;;;;;;;;;;;;13.65;100.00;98635.22;5036988;28;19952;-55
2023/03/22 02:14:07;;;;;;;;;;;;;;;13.78;100.00;98672.50;5037676;28;19983;-55
2023/03/22 02:16:48;;;;;;;;;;;;;;;14.33;100.00;98652.47;5036343;28;19921;-55
2023/03/22 02:19:28;;;;;;;;;;;;;;;13.53;100.00;98662.56;5038789;28;20890;-56
2023/03/22 02:22:08;;;;;;;;;;;;;;;13.56;100.00;98692.59;5036196;28;20596;-53
2023/03/22 02:24:34;;;;;;;;;;;;;;;13.56;100.00;98684.84;5036670;28;19912;-56
2023/03/22 02:26:59;;;;;;;;;;;;;;;13.42;100.00;98695.03;5038604;28;20286;-55
2023/03/22 02:29:28;;;;;;;;;;;;;;;13.93;100.00;98693.34;5035289;28;19982;-55
2023/03/22 02:32:06;;;;;;;;;;;;;;;13.73;100.00;98674.50;5034623;28;19917;-56
2023/03/22 02:34:33;;;;;;;;;;;;;;;14.07;100.00;98633.97;5033812;28;20124;-55
2023/03/22 02:37:24;;;;;;;;;;;;;;;13.93;100.00;98633.81;5033456;28;19920;-55
2023/03/22 02:39:50;;;;;;;;;;;;;;;13.45;100.00;98650.91;5032351;28;19916;-55
2023/03/22 02:42:15;;;;;;;;;;;;;;;14.01;100.00;98663.56;5034918;28;19920;-55
2023/03/22 02:44:40;;;;;;;;;;;;;;;13.99;100.00;98628.31;5031994;28;19917;-55
2023/03/22 02:47:08;;;;;;;;;;;;;;;14.30;100.00;98624.97;5035338;28;20241;-53
2023/03/22 02:49:38;;;;;;;;;;;;;;;14.29;100.00;98618.09;5034474;28;19921;-55
2023/03/22 02:52:10;;;;;;;;;;;;;;;14.66;100.00;98602.34;5033575;28;20415;-55
2023/03/22 02:54:40;;;;;;;;;;;;;;;13.99;100.00;98555.84;5032158;28;19959;-55
2023/03/22 02:57:28;;;;;;;;;;;;;;;13.87;100.00;98587.56;5035319;28;19923;-53
2023/03/22 02:59:54;;;;;;;;;;;;;;;14.10;100.00;98599.28;5025795;28;19924;-53
2023/03/22 03:02:19;;;;;;;;;;;;;;;13.86;100.00;98597.06;5033371;28;19923;-55
2023/03/22 03:04:45;;;;;;;;;;;;;;;13.71;100.00;98629.75;5032068;28;20397;-54
2023/03/22 03:07:13;;;;;;;;;;;;;;;14.19;100.00;98610.00;5035239;28;19921;-54
2023/03/22 03:09:38;;;;;;;;;;;;;;;13.97;100.00;98575.78;5035588;28;20416;-54
2023/03/22 03:12:07;;;;;;;;;;;;;;;13.42;100.00;98582.06;5039305;28;19920;-54
2023/03/22 03:14:33;;;;;;;;;;;;;;;13.27;100.00;98614.63;5036803;28;19921;-55
2023/03/22 03:17:01;;;;;;;;;;;;;;;13.25;100.00;98632.00;5039391;28;19938;-54
2023/03/22 03:19:34;;;;;;;;;;;;;;;13.26;100.00;98628.50;5038477;28;19920;-53
2023/03/22 03:22:09;;;;;;;;;;;;;;;13.32;100.00;98643.75;5037431;28;19921;-57
2023/03/22 03:24:40;;;;;;;;;;;;;;;13.21;100.00;98677.03;5036397;28;19935;-55
2023/03/22 03:27:07;;;;;;;;;;;;;;;13.09;100.00;98693.97;5038462;28;20315;-56
2023/03/22 03:29:37;;;;;;;;;;;;;;;13.17;100.00;98717.69;5036093;28;20328;-54
2023/03/22 03:32:09;;;;;;;;;;;;;;;13.29;100.00;98731.81;5037191;28;19917;-52
2023/03/22 03:34:38;;;;;;;;;;;;;;;13.96;100.00;98695.81;5035019;28;19928;-55
2023/03/22 03:37:08;;;;;;;;;;;;;;;13.31;100.00;98673.09;5037300;28;20902;-55
2023/03/22 03:39:34;;;;;;;;;;;;;;;12.68;100.00;98698.44;5037808;28;20036;-55
2023/03/22 03:41:59;;;;;;;;;;;;;;;13.16;100.00;98725.53;5036568;28;20461;-55
2023/03/22 03:44:25;;;;;;;;;;;;;;;12.90;100.00;98730.16;5036067;28;19927;-54
2023/03/22 03:46:50;;;;;;;;;;;;;;;13.00;100.00;98716.78;5036727;28;20345;-53
2023/03/22 03:49:15;;;;;;;;;;;;;;;12.66;100.00;98751.94;5037471;28;19924;-52
2023/03/22 03:51:54;;;;;;;;;;;;;;;13.09;100.00;98760.31;5038081;28;19947;-52
2023/03/22 03:54:20;;;;;;;;;;;;;;;13.23;100.00;98745.03;5035222;28;19916;-53
2023/03/22 03:56:49;;;;;;;;;;;;;;;12.58;100.00;98741.94;5036774;28;19931;-53
2023/03/22 03:59:15;;;;;;;;;;;;;;;12.91;100.00;98767.19;5036906;28;19917;-54
2023/03/22 04:01:50;;;;;;;;;;;;;;;12.84;100.00;98750.25;5036910;28;20020;-51
2023/03/22 04:04:25;;;;;;;;;;;;;;;13.27;100.00;98759.47;5035619;28;20980;-54
2023/03/22 04:06:51;;;;;;;;;;;;;;;12.83;100.00;98731.34;5037842;28;20255;-53
2023/03/22 04:09:17;;;;;;;;;;;;;;;12.62;100.00;98740.06;5036621;28;20090;-54
2023/03/22 04:11:42;;;;;;;;;;;;;;;13.16;100.00;98797.94;5037369;28;19920;-53
2023/03/22 04:14:07;;;;;;;;;;;;;;;13.52;100.00;98766.09;5036243;28;20183;-54
2023/03/22 04:16:32;;;;;;;;;;;;;;;13.95;100.00;98694.13;5036250;28;20422;-51
2023/03/22 04:18:58;;;;;;;;;;;;;;;14.08;100.00;98648.56;5037233;28;19924;-54
2023/03/22 04:21:23;;;;;;;;;;;;;;;13.55;100.00;98615.91;5037275;28;19917;-55
2023/03/22 04:23:48;;;;;;;;;;;;;;;14.00;100.00;98646.38;5036021;28;19924;-53
2023/03/22 04:26:14;;;;;;;;;;;;;;;13.09;100.00;98626.75;5036625;28;19935;-53
2023/03/22 04:28:39;;;;;;;;;;;;;;;14.47;100.00;98634.41;5037072;28;19924;-52
2023/03/22 04:31:05;;;;;;;;;;;;;;;13.69;100.00;98587.59;5036428;28;19916;-53
2023/03/22 04:33:31;;;;;;;;;;;;;;;13.69;100.00;98584.16;5036739;28;20292;-51
2023/03/22 04:35:56;;;;;;;;;;;;;;;13.52;100.00;98577.25;5037099;28;19913;-52
2023/03/22 04:38:22;;;;;;;;;;;;;;;14.67;100.00;98539.25;5036909;28;19964;-53
2023/03/22 04:40:47;;;;;;;;;;;;;;;14.25;100.00;98501.78;5036722;28;19916;-53
2023/03/22 04:43:13;;;;;;;;;;;;;;;15.29;100.00;98476.88;5034578;28;19948;-54
2023/03/22 04:45:38;;;;;;;;;;;;;;;15.06;100.00;98404.69;5036090;28;19959;-53
2023/03/22 04:48:06;;;;;;;;;;;;;;;13.87;100.00;98433.09;5036920;28;19917;-53
2023/03/22 04:50:31;;;;;;;;;;;;;;;14.09;100.00;98483.66;5035633;28;19924;-52
2023/03/22 04:52:57;;;;;;;;;;;;;;;14.11;100.00;98500.78;5036234;28;19962;-52
2023/03/22 04:55:22;;;;;;;;;;;;;;;13.49;100.00;98481.69;5035550;28;19920;-54
2023/03/22 04:57:47;;;;;;;;;;;;;;;14.34;100.00;98522.00;5036813;28;19960;-52
2023/03/22 05:00:14;;;;;;;;;;;;;;;14.04;100.00;98486.50;5035436;28;20140;-51
2023/03/22 05:02:39;;;;;;;;;;;;;;;13.54;100.00;98519.34;5037255;28;20336;-54
2023/03/22 05:05:05;;;;;;;;;;;;;;;13.95;100.00;98531.03;5036743;28;19917;-51
2023/03/22 05:07:30;;;;;;;;;;;;;;;13.68;100.00;98523.78;5036021;28;19923;-53
2023/03/22 05:09:55;;;;;;;;;;;;;;;13.90;100.00;98504.56;5035819;28;19924;-52
2023/03/22 05:12:21;;;;;;;;;;;;;;;13.58;100.00;98518.25;5036766;28;19962;-53
2023/03/22 05:14:46;;;;;;;;;;;;;;;13.11;100.00;98520.66;5036675;28;19920;-54
2023/03/22 05:17:11;;;;;;;;;;;;;;;13.33;100.00;98573.00;5039445;28;20369;-55
2023/03/22 05:19:36;;;;;;;;;;;;;;;13.89;100.00;98577.94;5037486;28;19921;-55
2023/03/22 05:22:02;;;;;;;;;;;;;;;13.51;100.00;98539.38;5037940;28;19921;-53
2023/03/22 05:24:30;;;;;;;;;;;;;;;13.75;100.00;98589.00;5035611;28;20293;-57
2023/03/22 05:26:59;;;;;;;;;;;;;;;14.55;100.00;98544.19;5035577;28;19960;-55
2023/03/22 05:29:25;;;;;;;;;;;;;;;13.84;100.00;98484.16;5035230;28;20033;-55
2023/03/22 05:31:51;;;;;;;;;;;;;;;14.75;100.00;98467.06;5034480;28;20057;-55
2023/03/22 05:34:16;;;;;;;;;;;;;;;13.35;100.00;98482.41;5033951;28;20007;-54
2023/03/22 05:36:41;;;;;;;;;;;;;;;14.32;100.00;98521.25;5035649;28;20253;-54
2023/03/22 05:39:07;;;;;;;;;;;;;;;14.72;100.00;98493.16;5035085;28;19955;-55
2023/03/22 05:41:32;;;;;;;;;;;;;;;14.51;100.00;98448.53;5034665;28;19928;-52
2023/03/22 05:43:58;;;;;;;;;;;;;;;13.84;100.00;98427.22;5032935;28;20779;-54
2023/03/22 05:46:23;;;;;;;;;;;;;;;14.60;100.00;98459.25;5035767;28;20491;-55
2023/03/22 05:48:48;;;;;;;;;;;;;;;14.18;100.00;98462.44;5034480;28;20012;-53
2023/03/22 05:51:16;;;;;;;;;;;;;;;13.97;100.00;98444.59;5035702;28;20023;-53
2023/03/22 05:53:46;;;;;;;;;;;;;;;14.27;100.00;98450.75;5033717;28;19950;-53
2023/03/22 05:56:11;;;;;;;;;;;;;;;14.70;100.00;98427.63;5035095;28;19917;-53
2023/03/22 05:58:36;;;;;;;;;;;;;;;14.56;100.00;98398.16;5035306;28;19939;-53
2023/03/22 06:01:10;;;;;;;;;;;;;;;14.28;100.00;98432.53;5030602;28;20397;-51
2023/03/22 06:03:35;;;;;;;;;;;;;;;14.02;100.00;98437.41;5031862;28;20076;-53
2023/03/22 06:06:00;;;;;;;;;;;;;;;14.62;100.00;98436.66;5034411;28;19971;-55
2023/03/22 06:08:26;;;;;;;;;;;;;;;14.38;100.00;98436.28;5035005;28;19916;-52
2023/03/22 06:10:51;;;;;;;;;;;;;;;14.71;100.00;98435.31;5035329;28;19978;-54
2023/03/22 06:13:17;;;;;;;;;;;;;;;15.28;100.00;98408.63;5033506;28;19941;-52
2023/03/22 06:15:42;;;;;;;;;;;;;;;14.06;100.00;98425.13;5035071;28;19962;-57
2023/03/22 06:18:07;;;;;;;;;;;;;;;15.47;100.00;98419.53;5037632;28;19983;-53
2023/03/22 06:20:34;;;;;;;;;;;;;;;14.20;100.00;98414.81;5036288;28;19916;-53
2023/03/22 06:22:59;;;;;;;;;;;;;;;15.34;100.00;98413.41;5035506;28;19924;-52
2023/03/22 06:25:24;;;;;;;;;;;;;;;14.83;100.00;98382.75;5034068;28;19923;-54
2023/03/22 06:27:50;;;;;;;;;;;;;;;14.62;100.00;98394.38;5034617;28;19917;-53
2023/03/22 06:30:15;;;;;;;;;;;;;;;14.96;100.00;98406.19;5034905;28;19975;-54
2023/03/22 06:32:40;;;;;;;;;;;;;;;14.95;100.00;98414.88;5034095;28;19924;-52
2023/03/22 06:35:06;;;;;;;;;;;;;;;13.79;100.00;98440.41;5034222;28;20277;-54
2023/03/22 06:37:31;;;;;;;;;;;;;;;14.80;100.00;98458.09;5035074;28;20295;-54
2023/03/22 06:39:56;;;;;;;;;;;;;;;14.05;100.00;98443.31;5033975;28;20357;-53
2023/03/22 06:42:21;;;;;;;;;;;;;;;15.53;100.00;98433.03;5035194;28;20399;-54
2023/03/22 06:44:47;;;;;;;;;;;;;;;15.00;100.00;98394.69;5035200;28;19916;-55
2023/03/22 06:47:12;;;;;;;;;;;;;;;15.09;100.00;98374.31;5038949;28;19919;-55
2023/03/22 06:49:38;;;;;;;;;;;;;;;14.98;100.00;98372.38;5038768;28;20251;-56
2023/03/22 06:52:04;;;;;;;;;;;;;;;15.07;100.00;98356.25;5037720;28;19968;-52
2023/03/22 06:54:29;;;;;;;;;;;;;;;14.42;100.00;98392.91;5038207;28;19997;-53
2023/03/22 06:56:54;;;;;;;;;;;;;;;15.25;100.00;98429.53;5038006;28;19916;-54
2023/03/22 06:59:20;;;;;;;;;;;;;;;15.20;100.00;98384.88;5038494;28;20404;-54
2023/03/22 07:01:45;;;;;;;;;;;;;;;15.22;100.00;98362.28;5038450;28;20189;-54
2023/03/22 07:04:10;;;;;;;;;;;;;;;14.38;100.00;98361.16;5038000;28;20012;-53
2023/03/22 07:06:35;;;;;;;;;;;;;;;15.28;100.00;98382.66;5039381;28;20007;-52
2023/03/22 07:09:01;;;;;;;;;;;;;;;14.97;100.00;98394.88;5038872;28;19968;-55
2023/03/22 07:11:26;;;;;;;;;;;;;;;14.91;100.00;98363.28;5039483;28;19956;-53
2023/03/22 07:13:52;;;;;;;;;;;;;;;15.56;100.00;98355.84;5037726;28;19917;-53
2023/03/22 07:16:17;;;;;;;;;;;;;;;15.09;100.00;98356.16;5038142;28;19916;-54
2023/03/22 07:18:42;;;;;;;;;;;;;;;14.78;100.00;98342.44;5037135;28;19927;-55
2023/03/22 07:21:09;;;;;;;;;;;;;;;14.03;100.00;98360.59;5038410;28;20337;-52
2023/03/22 07:23:35;;;;;;;;;;;;;;;15.17;100.00;98390.28;5037869;28;20018;-55
2023/03/22 07:26:00;;;;;;;;;;;;;;;15.35;100.00;98365.78;5037600;28;19913;-54
2023/03/22 07:28:25;;;;;;;;;;;;;;;14.38;100.00;98386.22;5039211;28;19924;-52
2023/03/22 07:31:04;;;;;;;;;;;;;;;14.99;100.00;98387.84;5035873;28;19920;-55
2023/03/22 07:33:29;;;;;;;;;;;;;;;14.62;100.00;98366.69;5038213;28;20203;-52
2023/03/22 07:35:55;;;;;;;;;;;;;;;14.79;100.00;98376.06;5038145;28;20444;-55
2023/03/22 07:38:20;;;;;;;;;;;;;;;14.96;100.00;98375.06;5038262;28;19917;-55
2023/03/22 07:40:45;;;;;;;;;;;;;;;14.42;100.00;98378.19;5037509;28;19917;-53
2023/03/22 07:43:12;;;;;;;;;;;;;;;14.77;100.00;98403.00;5035993;28;19920;-53
2023/03/22 07:45:37;;;;;;;;;;;;;;;15.30;100.00;98398.94;5036730;28;19963;-55
2023/03/22 07:48:02;;;;;;;;;;;;;;;15.33;100.00;98370.25;5038617;28;19956;-55
2023/03/22 07:50:27;;;;;;;;;;;;;;;15.64;100.00;98337.19;5037362;28;19925;-55
2023/03/22 07:52:53;;;;;;;;;;;;;;;14.31;100.00;98328.75;5037938;28;19921;-54
2023/03/22 07:55:18;;;;;;;;;;;;;;;14.80;100.00;98332.81;5036070;28;19912;-54
2023/03/22 07:57:43;;;;;;;;;;;;;;;14.28;100.00;98334.13;5037914;28;19928;-55
2023/03/22 08:00:11;;;;;;;;;;;;;;;16.01;100.00;98335.69;5037670;28;19923;-53
2023/03/22 08:02:37;;;;;;;;;;;;;;;15.97;100.00;98281.47;5037851;28;19917;-53
2023/03/22 08:05:03;;;;;;;;;;;;;;;15.97;100.00;98268.47;5036480;28;19981;-54
2023/03/22 08:07:29;;;;;;;;;;;;;;;15.86;100.00;98259.59;5038449;28;19917;-55
2023/03/22 08:09:54;;;;;;;;;;;;;;;15.60;100.00;98283.78;5036962;28;19960;-54
2023/03/22 08:12:19;;;;;;;;;;;;;;;15.45;100.00;98260.50;5038209;28;19971;-56
2023/03/22 08:14:49;;;;;;;;;;;;;;;16.30;100.00;98242.00;5036761;28;20468;-53
2023/03/22 08:17:14;;;;;;;;;;;;;;;15.53;100.00;98217.63;5037556;28;20561;-55
2023/03/22 08:19:40;;;;;;;;;;;;;;;16.01;100.00;98216.22;5037451;28;19932;-55
2023/03/22 08:22:05;;;;;;;;;;;;;;;15.85;100.00;98226.81;5037241;28;20290;-54
2023/03/22 08:24:30;;;;;;;;;;;;;;;16.18;100.00;98207.28;5036375;28;20436;-55
2023/03/22 08:26:56;;;;;;;;;;;;;;;16.06;100.00;98218.53;5037316;28;20328;-56
2023/03/22 08:29:21;;;;;;;;;;;;;;;16.08;100.00;98201.06;5037416;28;19921;-56
2023/03/22 08:31:47;;;;;;;;;;;;;;;17.11;100.00;98171.38;5037558;28;20122;-54
2023/03/22 08:34:12;;;;;;;;;;;;;;;16.61;100.00;98173.16;5036659;28;19948;-53
2023/03/22 08:36:37;;;;;;;;;;;;;;;16.51;100.00;98183.38;5037495;28;19921;-53
2023/03/22 08:39:03;;;;;;;;;;;;;;;16.75;100.00;98167.00;5037167;28;19943;-52
2023/03/22 08:41:28;;;;;;;;;;;;;;;17.07;100.00;98138.72;5037372;28;19916;-54
2023/03/22 08:43:53;;;;;;;;;;;;;;;16.94;100.00;98137.94;5033092;28;20273;-53
2023/03/22 08:46:19;;;;;;;;;;;;;;;17.50;100.00;98124.31;5037400;28;19913;-52
2023/03/22 08:48:49;;;;;;;;;;;;;;;17.25;100.00;98091.47;5037173;28;19916;-54
2023/03/22 08:51:18;;;;;;;;;;;;;;;17.51;100.00;98108.56;5035538;28;19917;-55
2023/03/22 08:53:43;;;;;;;;;;;;;;;17.35;100.00;98115.88;5036133;28;19916;-55
2023/03/22 08:56:08;;;;;;;;;;;;;;;17.39;100.00;98106.06;5036990;28;20458;-55
2023/03/22 08:58:33;;;;;;;;;;;;;;;16.54;100.00;98125.16;5037214;28;20503;-53
2023/03/22 09:00:59;;;;;;;;;;;;;;;16.75;100.00;98111.56;5036607;28;20403;-55
2023/03/22 09:03:24;;;;;;;;;;;;;;;17.35;100.00;98100.25;5035664;28;20053;-55
2023/03/22 09:05:49;;;;;;;;;;;;;;;17.05;100.00;98098.97;5035697;28;20500;-54
2023/03/22 09:08:15;;;;;;;;;;;;;;;16.70;100.00;98125.72;5037317;28;19920;-55
2023/03/22 09:10:40;;;;;;;;;;;;;;;17.44;100.00;98096.97;5035368;28;20422;-54
2023/03/22 09:13:05;;;;;;;;;;;;;;;17.18;100.00;98098.09;5036207;28;19924;-54
2023/03/22 09:15:31;;;;;;;;;;;;;;;17.32;100.00;98079.66;5036762;28;20321;-54
2023/03/22 09:17:56;;;;;;;;;;;;;;;16.14;100.00;98104.53;5036608;28;19925;-54
2023/03/22 09:20:24;;;;;;;;;;;;;;;16.40;100.00;98133.06;5036497;28;20174;-54
2023/03/22 09:22:49;;;;;;;;;;;;;;;17.65;100.00;98091.09;5035723;28;19921;-55
2023/03/22 09:25:15;;;;;;;;;;;;;;;16.47;100.00;98114.34;5035592;28;19917;-55
2023/03/22 09:27:40;;;;;;;;;;;;;;;16.89;100.00;98106.22;5035900;28;19941;-55
2023/03/22 09:30:05;;;;;;;;;;;;;;;17.74;100.00;98090.38;5035681;28;20077;-55
2023/03/22 09:32:31;;;;;;;;;;;;;;;17.39;100.00;98044.44;5036327;28;19967;-55
2023/03/22 09:34:56;;;;;;;;;;;;;;;16.67;100.00;98083.50;5034485;28;20339;-55
2023/03/22 09:37:21;;;;;;;;;;;;;;;16.82;100.00;98089.41;5035386;28;19996;-55
2023/03/22 09:39:48;;;;;;;;;;;;;;;16.79;100.00;98074.00;5036969;28;19921;-55
2023/03/22 09:42:25;;;;;;;;;;;;;;;16.00;100.00;98071.72;5036151;28;19956;-54
2023/03/22 09:44:50;;;;;;;;;;;;;;;16.14;100.00;98099.34;5033657;28;20074;-55
2023/03/22 09:47:18;;;;;;;;;;;;;;;17.19;100.00;98068.50;5036017;28;20294;-53
2023/03/22 09:49:44;;;;;;;;;;;;;;;16.72;100.00;98069.25;5016951;28;20497;-53
2023/03/22 09:52:13;;;;;;;;;;;;;;;16.64;100.00;98053.34;5034815;28;20241;-54
2023/03/22 09:54:39;;;;;;;;;;;;;;;16.50;100.00;98077.75;5034587;28;19916;-54
2023/03/22 09:57:07;;;;;;;;;;;;;;;16.48;100.00;98073.59;5036695;28;19919;-53
2023/03/22 09:59:35;;;;;;;;;;;;;;;16.52;100.00;98067.25;5036430;28;19917;-52
2023/03/22 10:02:03;;;;;;;;;;;;;;;16.82;100.00;98051.22;5034473;28;19919;-54
2023/03/22 10:04:35;;;;;;;;;;;;;;;16.72;100.00;97999.03;5033927;28;20421;-51
2023/03/22 10:07:19;;;;;;;;;;;;;;;18.26;100.00;97969.13;5036469;28;19920;-55
2023/03/22 10:09:49;;;;;;;;;;;;;;;17.67;100.00;97985.06;5035571;28;19974;-54
2023/03/22 10:12:34;;;;;;;;;;;;;;;17.51;100.00;97996.63;5035016;28;20075;-53
2023/03/22 10:15:04;;;;;;;;;;;;;;;17.12;100.00;98021.31;5003068;28;19923;-52
2023/03/22 10:17:30;;;;;;;;;;;;;;;18.33;100.00;97985.94;5036576;28;19923;-54
2023/03/22 10:19:57;;;;;;;;;;;;;;;17.64;100.00;97964.47;5035956;28;20576;-54
2023/03/22 10:22:24;;;;;;;;;;;;;;;17.22;100.00;97961.59;5034314;28;19917;-54
2023/03/22 10:24:49;;;;;;;;;;;;;;;16.57;100.00;97984.56;5034760;28;20309;-54
2023/03/22 10:27:18;;;;;;;;;;;;;;;18.46;100.00;97938.03;5034237;28;19917;-55
2023/03/22 10:29:50;;;;;;;;;;;;;;;18.91;100.00;97919.59;5035263;28;19925;-56
2023/03/22 10:32:17;;;;;;;;;;;;;;;18.44;100.00;97930.31;5033344;28;19920;-55
2023/03/22 10:34:42;;;;;;;;;;;;;;;18.92;100.00;97916.84;5033745;28;20127;-55
2023/03/22 10:37:09;;;;;;;;;;;;;;;18.72;100.00;97900.19;5035417;28;20377;-56
2023/03/22 10:39:35;;;;;;;;;;;;;;;19.91;100.00;97888.41;5034451;28;19917;-56
2023/03/22 10:42:14;;;;;;;;;;;;;;;18.64;100.00;97907.84;5035334;28;19993;-57
2023/03/22 10:44:59;;;;;;;;;;;;;;;17.78;100.00;97915.56;5032814;28;20669;-55
2023/03/22 10:47:27;;;;;;;;;;;;;;;18.43;100.00;97904.38;5035692;28;19913;-55
2023/03/22 10:49:53;;;;;;;;;;;;;;;18.36;100.00;97920.53;5033218;28;20385;-55
2023/03/22 10:52:21;;;;;;;;;;;;;;;19.47;100.00;97885.22;5034699;28;20073;-55
2023/03/22 10:54:47;;;;;;;;;;;;;;;19.63;100.00;97885.53;5033060;28;20327;-56
2023/03/22 10:57:12;;;;;;;;;;;;;;;18.51;100.00;97908.00;5034271;28;20428;-55
2023/03/22 10:59:41;;;;;;;;;;;;;;;18.36;100.00;97920.53;5035263;28;20491;-55
2023/03/22 11:02:15;;;;;;;;;;;;;;;19.67;100.00;97908.78;5035311;28;20435;-57
2023/03/22 11:04:40;;;;;;;;;;;;;;;18.59;100.00;97915.22;5034860;28;19999;-55
2023/03/22 11:07:09;;;;;;;;;;;;;;;19.09;100.00;97906.75;5033681;28;19959;-56
2023/03/22 11:09:35;;;;;;;;;;;;;;;18.57;100.00;97910.13;5033402;28;20419;-56
2023/03/22 11:12:00;;;;;;;;;;;;;;;18.15;100.00;97924.84;5033635;28;19916;-55
2023/03/22 11:14:35;;;;;;;;;;;;;;;19.64;100.00;97887.19;5034287;28;19928;-55
2023/03/22 11:17:12;;;;;;;;;;;;;;;19.68;100.00;97855.56;5036003;28;20005;-56
2023/03/22 11:19:39;;;;;;;;;;;;;;;19.80;100.00;97859.78;5035009;28;19916;-55
2023/03/22 11:22:23;;;;;;;;;;;;;;;19.13;100.00;97888.09;5033757;28;19923;-56
2023/03/22 11:24:48;;;;;;;;;;;;;;;18.32;100.00;97913.91;5034469;28;19924;-55
2023/03/22 11:27:23;;;;;;;;;;;;;;;18.02;100.00;97932.84;5033241;28;19913;-55
2023/03/22 11:29:49;;;;;;;;;;;;;;;18.69;100.00;97895.25;5037165;28;19924;-54
2023/03/22 11:32:38;;;;;;;;;;;;;;;18.18;100.00;97925.44;5038077;28;20463;-56
2023/03/22 11:35:12;;;;;;;;;;;;;;;18.19;100.00;97911.47;5032085;28;19916;-55
2023/03/22 11:37:41;;;;;;;;;;;;;;;19.20;98.76;97893.63;5038807;28;20387;-56
2023/03/22 11:40:09;;;;;;;;;;;;;;;19.23;99.33;97903.81;5037455;28;19924;-56
2023/03/22 11:42:35;;;;;;;;;;;;;;;18.94;96.32;97882.81;5039620;28;19920;-56
2023/03/22 11:45:00;;;;;;;;;;;;;;;19.09;97.37;97893.72;5033755;28;19913;-56
2023/03/22 11:47:26;;;;;;;;;;;;;;;18.94;96.45;97883.63;5038678;28;20399;-55
2023/03/22 11:49:53;;;;;;;;;;;;;;;18.45;94.94;97886.84;5036821;28;20445;-55
2023/03/22 11:52:20;;;;;;;;;;;;;;;19.44;96.88;97875.03;5036946;28;20459;-56
2023/03/22 11:54:45;;;;;;;;;;;;;;;18.89;95.39;97874.53;5036039;28;20396;-56
2023/03/22 11:57:15;;;;;;;;;;;;;;;19.37;98.66;97885.19;5038360;28;20011;-55
2023/03/22 12:00:10;;;;;;;;;;;;;;;18.84;97.76;97882.75;5037533;28;20326;-56
2023/03/22 12:02:45;;;;;;;;;;;;;;;20.63;95.59;97844.50;5034557;28;19936;-54
2023/03/22 12:05:16;;;;;;;;;;;;;;;20.53;93.67;97841.06;5035465;28;19924;-55
2023/03/22 12:07:42;;;;;;;;;;;;;;;20.32;92.28;97833.34;5037681;28;19964;-56
2023/03/22 12:10:18;;;;;;;;;;;;;;;20.49;94.09;97845.72;5037760;28;20030;-55
2023/03/22 12:12:49;;;;;;;;;;;;;;;21.53;92.99;97809.03;5036193;28;19921;-56
2023/03/22 12:15:16;;;;;;;;;;;;;;;20.39;91.51;97821.38;5035541;28;20317;-56
2023/03/22 12:17:59;;;;;;;;;;;;;;;20.22;92.87;97836.00;5037904;28;20342;-56
2023/03/22 12:20:29;;;;;;;;;;;;;;;18.85;92.69;97844.44;5036594;28;19917;-55
2023/03/22 12:22:54;;;;;;;;;;;;;;;19.31;91.64;97827.47;5036155;28;19917;-56
2023/03/22 12:25:28;;;;;;;;;;;;;;;19.33;91.72;97817.72;5034657;28;20073;-55
2023/03/22 12:27:54;;;;;;;;;;;;;;;20.46;88.69;97791.91;5037198;28;20001;-55
2023/03/22 12:30:20;;;;;;;;;;;;;;;21.11;89.75;97785.94;5035707;28;19921;-56
2023/03/22 12:32:47;;;;;;;;;;;;;;;19.41;90.06;97823.91;5036362;28;19995;-56
2023/03/22 12:35:14;;;;;;;;;;;;;;;20.59;91.24;97803.88;5034735;28;20225;-56
2023/03/22 12:37:41;;;;;;;;;;;;;;;19.79;88.70;97808.47;5036381;28;20296;-56